Time;durP1;ratioP1;P1;durP2;ratioP2;P2;SDS_P1;SDS_P2;PMS_P1;PMS_P2;Temp;Humidity;BMP_temperature;BMP_pressure;BME280_temperature;BME280_humidity;BME280_pressure;Samples;Min_cycle;Max_cycle;Signal;HPM_P1;HPM_P2
2023/09/22 00:00:49;;;;;;;;;;;;;;;;;;5053122;28;20012;-75
2023/09/22 00:03:15;;;;;;;;;;;;;;;;;;5053393;28;19986;-75
2023/09/22 00:05:41;;;;;;;;;;;;;;;;;;5052968;28;20450;-74
2023/09/22 00:08:07;;;;;;;;;;;;;;;;;;5052888;28;19993;-74
2023/09/22 00:10:33;;;;;;;;;;;;;;;;;;5052865;28;20040;-75
2023/09/22 00:12:59;;;;;;;;;;;;;;;;;;5051678;28;19990;-74
2023/09/22 00:15:27;;;;;;;;;;;;;;;;;;5052875;28;20028;-75
2023/09/22 00:17:52;;;;;;;;;;;;;;;;;;5053010;28;19982;-75
2023/09/22 00:20:20;;;;;;;;;;;;;;;;;;5052555;28;20023;-75
2023/09/22 00:22:46;;;;;;;;;;;;;;;;;;5052936;28;19993;-74
2023/09/22 00:25:12;;;;;;;;;;;;;;;;;;5052734;28;19981;-75
2023/09/22 00:27:38;;;;;;;;;;;;;;;;;;5052775;28;20067;-76
2023/09/22 00:30:04;;;;;;;;;;;;;;;;;;5051761;28;20026;-75
2023/09/22 00:32:30;;;;;;;;;;;;;;;;;;5052085;28;19989;-73
2023/09/22 00:34:56;;;;;;;;;;;;;;;;;;5052627;28;20401;-77
2023/09/22 00:37:22;;;;;;;;;;;;;;;;;;5052741;28;19982;-73
2023/09/22 00:39:48;;;;;;;;;;;;;;;;;;5052543;28;20009;-72
2023/09/22 00:42:14;;;;;;;;;;;;;;;;;;5052226;28;19982;-74
2023/09/22 00:44:40;;;;;;;;;;;;;;;;;;5051157;28;20017;-75
2023/09/22 00:47:06;;;;;;;;;;;;;;;;;;5051173;28;20450;-71
2023/09/22 00:49:32;;;;;;;;;;;;;;;;;;5052305;28;19989;-71
2023/09/22 00:51:58;;;;;;;;;;;;;;;;;;5052403;28;20028;-73
2023/09/22 00:54:24;;;;;;;;;;;;;;;;;;5051814;28;20028;-73
2023/09/22 00:56:50;;;;;;;;;;;;;;;;;;5052215;28;19982;-74
2023/09/22 00:59:16;;;;;;;;;;;;;;;;;;5052162;28;20035;-75
2023/09/22 01:01:42;;;;;;;;;;;;;;;;;;5052094;28;19997;-76
2023/09/22 01:04:08;;;;;;;;;;;;;;;;;;5051189;28;20001;-76
2023/09/22 01:06:35;;;;;;;;;;;;;;;;;;5051576;28;19998;-77
2023/09/22 01:09:05;;;;;;;;;;;;;;;;;;5051716;28;20358;-76
2023/09/22 01:11:33;;;;;;;;;;;;;;;;;;5051766;28;19986;-76
2023/09/22 01:13:59;;;;;;;;;;;;;;;;;;5051405;28;20025;-77
2023/09/22 01:16:24;;;;;;;;;;;;;;;;;;5051650;28;20029;-75
2023/09/22 01:18:50;;;;;;;;;;;;;;;;;;5051781;28;20008;-73
2023/09/22 01:21:16;;;;;;;;;;;;;;;;;;5050516;28;20425;-74
2023/09/22 01:23:42;;;;;;;;;;;;;;;;;;5051711;28;19992;-74
2023/09/22 01:26:08;;;;;;;;;;;;;;;;;;5050673;28;20442;-76
2023/09/22 01:28:34;;;;;;;;;;;;;;;;;;5035941;28;20077;-78
2023/09/22 01:31:01;;;;;;;;;;;;;;;;;;5043976;28;19990;-78
2023/09/22 01:33:27;;;;;;;;;;;;;;;;;;5051573;28;19990;-77
2023/09/22 01:35:53;;;;;;;;;;;;;;;;;;5061913;28;20067;-77
2023/09/22 01:38:19;;;;;;;;;;;;;;;;;;5066698;28;19994;-76
2023/09/22 01:40:45;;;;;;;;;;;;;;;;;;5054273;28;19986;-78
2023/09/22 01:43:10;;;;;;;;;;;;;;;;;;5054770;28;20105;-78
2023/09/22 01:45:36;;;;;;;;;;;;;;;;;;5051684;28;20112;-78
2023/09/22 01:48:02;;;;;;;;;;;;;;;;;;5051043;28;20310;-77
2023/09/22 01:50:28;;;;;;;;;;;;;;;;;;5051403;28;19997;-78
2023/09/22 01:52:54;;;;;;;;;;;;;;;;;;5050384;28;20006;-78
2023/09/22 01:55:20;;;;;;;;;;;;;;;;;;5050663;28;20091;-78
2023/09/22 01:57:46;;;;;;;;;;;;;;;;;;5052714;28;20446;-77
2023/09/22 02:00:12;;;;;;;;;;;;;;;;;;5040745;28;20077;-76
2023/09/22 02:02:42;;;;;;;;;;;;;;;;;;5037162;28;19996;-78
2023/09/22 02:05:08;;;;;;;;;;;;;;;;;;5053541;28;20006;-78
2023/09/22 02:07:34;;;;;;;;;;;;;;;;;;5052673;28;19988;-79
2023/09/22 02:10:00;;;;;;;;;;;;;;;;;;5052961;28;19989;-79
2023/09/22 02:12:26;;;;;;;;;;;;;;;;;;5050188;28;19997;-77
2023/09/22 02:14:52;;;;;;;;;;;;;;;;;;5051175;28;20010;-78
2023/09/22 02:17:18;;;;;;;;;;;;;;;;;;5052346;28;20200;-77
2023/09/22 02:19:44;;;;;;;;;;;;;;;;;;5052240;28;20059;-77
2023/09/22 02:22:10;;;;;;;;;;;;;;;;;;5055227;28;19990;-76
2023/09/22 02:24:36;;;;;;;;;;;;;;;;;;5038556;28;20013;-77
2023/09/22 02:27:02;;;;;;;;;;;;;;;;;;5051103;28;20043;-78
2023/09/22 02:29:28;;;;;;;;;;;;;;;;;;5050907;28;19990;-78
2023/09/22 02:31:54;;;;;;;;;;;;;;;;;;5050745;28;20426;-77
2023/09/22 02:34:20;;;;;;;;;;;;;;;;;;5050286;28;20108;-78
2023/09/22 02:36:46;;;;;;;;;;;;;;;;;;5050693;28;20039;-79
2023/09/22 02:39:12;;;;;;;;;;;;;;;;;;5050136;28;20109;-78
2023/09/22 02:41:38;;;;;;;;;;;;;;;;;;5049660;28;20508;-77
2023/09/22 02:44:07;;;;;;;;;;;;;;;;;;5050305;28;20061;-77
2023/09/22 02:46:33;;;;;;;;;;;;;;;;;;5050295;28;19990;-77
2023/09/22 02:48:59;;;;;;;;;;;;;;;;;;5049767;28;19989;-79
2023/09/22 02:51:25;;;;;;;;;;;;;;;;;;5050610;28;20397;-79
2023/09/22 02:53:51;;;;;;;;;;;;;;;;;;5050617;28;20434;-79
2023/09/22 02:56:17;;;;;;;;;;;;;;;;;;5049902;28;20014;-79
2023/09/22 02:58:45;;;;;;;;;;;;;;;;;;5049281;28;20089;-80
2023/09/22 03:01:11;;;;;;;;;;;;;;;;;;5050687;28;20430;-79
2023/09/22 03:03:37;;;;;;;;;;;;;;;;;;5038892;28;20044;-79
2023/09/22 03:06:03;;;;;;;;;;;;;;;;;;5036971;28;20410;-79
2023/09/22 03:08:29;;;;;;;;;;;;;;;;;;5051749;28;19989;-80
2023/09/22 03:10:57;;;;;;;;;;;;;;;;;;5054258;28;20271;-80
2023/09/22 03:13:23;;;;;;;;;;;;;;;;;;5052697;28;20446;-79
2023/09/22 03:15:50;;;;;;;;;;;;;;;;;;5053797;28;20021;-80
2023/09/22 03:18:16;;;;;;;;;;;;;;;;;;5054009;28;19986;-79
2023/09/22 03:20:42;;;;;;;;;;;;;;;;;;5053806;28;20477;-78
2023/09/22 03:23:08;;;;;;;;;;;;;;;;;;5054051;28;20029;-79
2023/09/22 03:25:34;;;;;;;;;;;;;;;;;;5053399;28;19993;-79
2023/09/22 03:28:00;;;;;;;;;;;;;;;;;;5053701;28;20436;-79
2023/09/22 03:30:26;;;;;;;;;;;;;;;;;;5052665;28;20009;-79
2023/09/22 03:32:52;;;;;;;;;;;;;;;;;;5053654;28;20040;-80
2023/09/22 03:35:18;;;;;;;;;;;;;;;;;;5053598;28;20577;-79
2023/09/22 03:37:45;;;;;;;;;;;;;;;;;;5053701;28;19993;-80
2023/09/22 03:40:14;;;;;;;;;;;;;;;;;;5053408;28;20028;-73
2023/09/22 03:42:40;;;;;;;;;;;;;;;;;;5051750;28;19985;-75
2023/09/22 03:45:07;;;;;;;;;;;;;;;;;;5051665;28;20497;-73
2023/09/22 03:47:33;;;;;;;;;;;;;;;;;;5050294;28;19990;-74
2023/09/22 03:49:59;;;;;;;;;;;;;;;;;;5050957;28;20469;-74
2023/09/22 03:52:24;;;;;;;;;;;;;;;;;;5051584;28;19985;-75
2023/09/22 03:54:50;;;;;;;;;;;;;;;;;;5051491;28;20489;-74
2023/09/22 03:57:18;;;;;;;;;;;;;;;;;;5052843;28;19986;-74
2023/09/22 03:59:44;;;;;;;;;;;;;;;;;;5053096;28;20077;-75
2023/09/22 04:02:10;;;;;;;;;;;;;;;;;;5046684;28;20090;-74
2023/09/22 04:04:36;;;;;;;;;;;;;;;;;;5048929;28;19993;-74
2023/09/22 04:07:02;;;;;;;;;;;;;;;;;;5052994;28;19986;-75
2023/09/22 04:09:28;;;;;;;;;;;;;;;;;;5053214;28;19985;-73
2023/09/22 04:11:54;;;;;;;;;;;;;;;;;;5052659;28;19986;-75
2023/09/22 04:14:23;;;;;;;;;;;;;;;;;;5052887;28;20032;-74
2023/09/22 04:16:49;;;;;;;;;;;;;;;;;;5052731;28;19990;-74
2023/09/22 04:19:15;;;;;;;;;;;;;;;;;;5052679;28;19986;-76
2023/09/22 04:21:45;;;;;;;;;;;;;;;;;;5051597;28;19990;-75
2023/09/22 04:24:11;;;;;;;;;;;;;;;;;;5052428;28;20315;-76
2023/09/22 04:26:42;;;;;;;;;;;;;;;;;;5052462;28;19992;-76
2023/09/22 04:29:08;;;;;;;;;;;;;;;;;;5052680;28;20016;-76
2023/09/22 04:31:34;;;;;;;;;;;;;;;;;;5052360;28;19982;-75
2023/09/22 04:34:01;;;;;;;;;;;;;;;;;;5052611;28;19996;-76
2023/09/22 04:36:27;;;;;;;;;;;;;;;;;;5052297;28;19986;-76
2023/09/22 04:38:53;;;;;;;;;;;;;;;;;;5051284;28;20076;-76
2023/09/22 04:41:22;;;;;;;;;;;;;;;;;;5052359;28;20017;-75
2023/09/22 04:43:47;;;;;;;;;;;;;;;;;;5052039;28;20018;-73
2023/09/22 04:46:15;;;;;;;;;;;;;;;;;;5051851;28;20127;-75
2023/09/22 04:48:41;;;;;;;;;;;;;;;;;;5052228;28;20350;-76
2023/09/22 04:51:07;;;;;;;;;;;;;;;;;;5052252;28;19985;-76
2023/09/22 04:53:33;;;;;;;;;;;;;;;;;;5052227;28;19982;-75
2023/09/22 04:55:59;;;;;;;;;;;;;;;;;;5050671;28;20021;-74
2023/09/22 04:58:26;;;;;;;;;;;;;;;;;;5051607;28;20029;-75
2023/09/22 05:00:52;;;;;;;;;;;;;;;;;;5051897;28;20477;-75
2023/09/22 05:03:18;;;;;;;;;;;;;;;;;;5052029;28;19986;-75
2023/09/22 05:05:45;;;;;;;;;;;;;;;;;;5052094;28;20002;-74
2023/09/22 05:08:11;;;;;;;;;;;;;;;;;;5051291;28;19985;-75
2023/09/22 05:10:37;;;;;;;;;;;;;;;;;;5049968;28;20438;-74
2023/09/22 05:13:03;;;;;;;;;;;;;;;;;;5050696;28;19997;-74
2023/09/22 05:15:29;;;;;;;;;;;;;;;;;;5049728;28;20013;-76
2023/09/22 05:17:56;;;;;;;;;;;;;;;;;;5051367;28;19990;-76
2023/09/22 05:20:22;;;;;;;;;;;;;;;;;;5050899;28;19989;-75
2023/09/22 05:22:48;;;;;;;;;;;;;;;;;;5049915;28;19989;-75
2023/09/22 05:25:15;;;;;;;;;;;;;;;;;;5051408;28;19989;-75
2023/09/22 05:27:42;;;;;;;;;;;;;;;;;;5050120;28;20366;-75
2023/09/22 05:30:08;;;;;;;;;;;;;;;;;;5050292;28;19990;-76
2023/09/22 05:32:34;;;;;;;;;;;;;;;;;;5050766;28;20047;-77
2023/09/22 05:34:59;;;;;;;;;;;;;;;;;;5051422;28;20014;-76
2023/09/22 05:37:26;;;;;;;;;;;;;;;;;;5051553;28;20001;-76
2023/09/22 05:39:53;;;;;;;;;;;;;;;;;;5051605;28;20036;-82
2023/09/22 05:42:19;;;;;;;;;;;;;;;;;;5051500;28;19990;-78
2023/09/22 05:44:46;;;;;;;;;;;;;;;;;;5049686;28;20020;-78
2023/09/22 05:47:12;;;;;;;;;;;;;;;;;;5051552;28;20043;-79
2023/09/22 05:49:38;;;;;;;;;;;;;;;;;;5051456;28;19981;-78
2023/09/22 05:52:04;;;;;;;;;;;;;;;;;;5051359;28;20056;-79
2023/09/22 05:54:30;;;;;;;;;;;;;;;;;;5050937;28;20084;-80
2023/09/22 05:56:56;;;;;;;;;;;;;;;;;;5049933;28;19990;-78
2023/09/22 05:59:24;;;;;;;;;;;;;;;;;;5051235;28;20070;-80
2023/09/22 06:01:50;;;;;;;;;;;;;;;;;;5050413;28;20142;-79
2023/09/22 06:04:16;;;;;;;;;;;;;;;;;;5050937;28;20418;-76
2023/09/22 06:06:42;;;;;;;;;;;;;;;;;;5051575;28;19997;-81
2023/09/22 06:09:11;;;;;;;;;;;;;;;;;;5051697;28;20063;-78
2023/09/22 06:11:37;;;;;;;;;;;;;;;;;;5052710;28;19985;-84
2023/09/22 06:14:04;;;;;;;;;;;;;;;;;;5052253;28;20028;-84
2023/09/22 06:16:30;;;;;;;;;;;;;;;;;;5052439;28;19994;-85
2023/09/22 06:18:56;;;;;;;;;;;;;;;;;;5053675;28;20001;-86
2023/09/22 06:21:22;;;;;;;;;;;;;;;;;;5052122;28;20366;-75
2023/09/22 06:23:49;;;;;;;;;;;;;;;;;;5053707;28;19990;-85
2023/09/22 06:26:16;;;;;;;;;;;;;;;;;;5053253;28;20468;-86
2023/09/22 06:28:42;;;;;;;;;;;;;;;;;;5051389;28;19993;-84
2023/09/22 06:31:08;;;;;;;;;;;;;;;;;;5051776;28;20131;-85
2023/09/22 06:33:34;;;;;;;;;;;;;;;;;;5050010;28;19993;-84
2023/09/22 06:36:00;;;;;;;;;;;;;;;;;;5050361;28;20013;-84
2023/09/22 06:38:26;;;;;;;;;;;;;;;;;;5052945;28;19989;-82
2023/09/22 06:40:55;;;;;;;;;;;;;;;;;;5051141;28;19993;-83
2023/09/22 06:43:23;;;;;;;;;;;;;;;;;;5053236;28;20024;-78
2023/09/22 06:45:51;;;;;;;;;;;;;;;;;;5055189;28;20040;-82
2023/09/22 06:48:17;;;;;;;;;;;;;;;;;;5054648;28;20339;-79
2023/09/22 06:50:43;;;;;;;;;;;;;;;;;;5052960;28;20026;-78
2023/09/22 06:53:11;;;;;;;;;;;;;;;;;;5035262;28;19990;-79
2023/09/22 06:55:37;;;;;;;;;;;;;;;;;;5035035;28;20128;-82
2023/09/22 06:58:06;;;;;;;;;;;;;;;;;;5037512;28;20012;-81
2023/09/22 07:00:32;;;;;;;;;;;;;;;;;;5039011;28;19986;-82
2023/09/22 07:02:59;;;;;;;;;;;;;;;;;;5038540;28;20336;-82
2023/09/22 07:05:25;;;;;;;;;;;;;;;;;;5039969;28;20006;-81
2023/09/22 07:07:52;;;;;;;;;;;;;;;;;;5045492;28;19997;-81
2023/09/22 07:10:18;;;;;;;;;;;;;;;;;;5056650;28;19993;-84
2023/09/22 07:12:44;;;;;;;;;;;;;;;;;;5058076;28;19982;-84
2023/09/22 07:15:10;;;;;;;;;;;;;;;;;;5050677;28;20021;-85
2023/09/22 07:17:36;;;;;;;;;;;;;;;;;;5045623;28;20033;-84
2023/09/22 07:20:03;;;;;;;;;;;;;;;;;;5055183;28;20088;-90
2023/09/22 07:22:29;;;;;;;;;;;;;;;;;;5050730;28;20051;-83
2023/09/22 07:24:55;;;;;;;;;;;;;;;;;;5051154;28;20001;-83
2023/09/22 07:27:23;;;;;;;;;;;;;;;;;;5050128;28;19986;-83
2023/09/22 07:29:50;;;;;;;;;;;;;;;;;;5046092;28;20363;-83
2023/09/22 07:32:16;;;;;;;;;;;;;;;;;;5055124;28;19986;-83
2023/09/22 07:34:42;;;;;;;;;;;;;;;;;;5038559;28;20525;-79
2023/09/22 07:37:11;;;;;;;;;;;;;;;;;;5050504;28;19986;-78
2023/09/22 07:39:37;;;;;;;;;;;;;;;;;;5050810;28;19985;-72
2023/09/22 07:42:03;;;;;;;;;;;;;;;;;;5060266;28;19985;-78
2023/09/22 07:44:30;;;;;;;;;;;;;;;;;;5054526;28;20047;-72
2023/09/22 07:46:58;;;;;;;;;;;;;;;;;;5059322;28;20076;-75
2023/09/22 07:49:24;;;;;;;;;;;;;;;;;;5053696;28;20076;-77
2023/09/22 07:51:50;;;;;;;;;;;;;;;;;;5038131;28;19987;-77
2023/09/22 07:54:18;;;;;;;;;;;;;;;;;;5049018;28;20099;-78
2023/09/22 07:56:46;;;;;;;;;;;;;;;;;;5047552;28;20538;-80
2023/09/22 07:59:13;;;;;;;;;;;;;;;;;;5035994;28;20459;-78
2023/09/22 08:01:42;;;;;;;;;;;;;;;;;;5033279;28;19989;-76
2023/09/22 08:04:08;;;;;;;;;;;;;;;;;;5050344;28;19996;-77
2023/09/22 08:06:34;;;;;;;;;;;;;;;;;;5045174;28;20085;-76
2023/09/22 08:09:00;;;;;;;;;;;;;;;;;;5038408;28;19990;-82
2023/09/22 08:11:26;;;;;;;;;;;;;;;;;;5044526;28;20081;-75
2023/09/22 08:13:52;;;;;;;;;;;;;;;;;;5033429;28;19986;-77
2023/09/22 08:16:18;;;;;;;;;;;;;;;;;;5033279;28;20018;-77
2023/09/22 08:18:44;;;;;;;;;;;;;;;;;;5033499;28;20384;-76
2023/09/22 08:21:10;;;;;;;;;;;;;;;;;;5033440;28;20068;-79
2023/09/22 08:23:36;;;;;;;;;;;;;;;;;;5032965;28;20462;-77
2023/09/22 08:26:05;;;;;;;;;;;;;;;;;;5032509;28;19990;-77
2023/09/22 08:28:31;;;;;;;;;;;;;;;;;;5041026;28;20128;-78
2023/09/22 08:30:57;;;;;;;;;;;;;;;;;;5052828;28;19985;-78
2023/09/22 08:33:23;;;;;;;;;;;;;;;;;;5052664;28;19986;-78
2023/09/22 08:35:49;;;;;;;;;;;;;;;;;;5052371;28;20488;-77
2023/09/22 08:38:15;;;;;;;;;;;;;;;;;;5052616;28;19993;-77
2023/09/22 08:40:41;;;;;;;;;;;;;;;;;;5052441;28;19993;-77
2023/09/22 08:43:08;;;;;;;;;;;;;;;;;;5051172;28;20013;-78
2023/09/22 08:45:34;;;;;;;;;;;;;;;;;;5053402;28;19989;-79
2023/09/22 08:48:00;;;;;;;;;;;;;;;;;;5051844;28;19990;-78
2023/09/22 08:50:26;;;;;;;;;;;;;;;;;;5052261;28;19989;-78
2023/09/22 08:52:52;;;;;;;;;;;;;;;;;;5052723;28;20123;-78
2023/09/22 08:55:18;;;;;;;;;;;;;;;;;;5052006;28;20053;-77
2023/09/22 08:57:44;;;;;;;;;;;;;;;;;;5052049;28;20511;-77
2023/09/22 09:00:12;;;;;;;;;;;;;;;;;;5049519;28;20424;-78
2023/09/22 09:02:38;;;;;;;;;;;;;;;;;;5052054;28;19982;-77
2023/09/22 09:05:04;;;;;;;;;;;;;;;;;;5051716;28;20010;-77
2023/09/22 09:07:31;;;;;;;;;;;;;;;;;;5051672;28;20383;-77
2023/09/22 09:09:58;;;;;;;;;;;;;;;;;;5051803;28;20012;-77
2023/09/22 09:12:25;;;;;;;;;;;;;;;;;;5051889;28;20021;-76
2023/09/22 09:14:51;;;;;;;;;;;;;;;;;;5051774;28;20010;-77
2023/09/22 09:17:17;;;;;;;;;;;;;;;;;;5050673;28;20013;-77
2023/09/22 09:19:43;;;;;;;;;;;;;;;;;;5051998;28;19989;-76
2023/09/22 09:22:10;;;;;;;;;;;;;;;;;;5051485;28;19985;-76
2023/09/22 09:24:35;;;;;;;;;;;;;;;;;;5051692;28;20012;-76
2023/09/22 09:27:01;;;;;;;;;;;;;;;;;;5051700;28;20388;-76
2023/09/22 09:29:28;;;;;;;;;;;;;;;;;;5051729;28;20342;-76
2023/09/22 09:31:55;;;;;;;;;;;;;;;;;;5050459;28;19986;-75
2023/09/22 09:34:23;;;;;;;;;;;;;;;;;;5029891;28;20124;-75
2023/09/22 09:36:49;;;;;;;;;;;;;;;;;;5031572;28;20439;-75
2023/09/22 09:39:17;;;;;;;;;;;;;;;;;;5030697;28;19982;-75
2023/09/22 09:41:43;;;;;;;;;;;;;;;;;;5051271;28;19989;-75
2023/09/22 09:44:09;;;;;;;;;;;;;;;;;;5051006;28;20498;-74
2023/09/22 09:46:36;;;;;;;;;;;;;;;;;;5051655;28;20404;-74
2023/09/22 09:49:01;;;;;;;;;;;;;;;;;;5051456;28;19989;-73
2023/09/22 09:51:27;;;;;;;;;;;;;;;;;;5051304;28;20012;-73
2023/09/22 09:53:53;;;;;;;;;;;;;;;;;;5051216;28;19986;-74
2023/09/22 09:56:19;;;;;;;;;;;;;;;;;;5049969;28;20020;-74
2023/09/22 09:58:45;;;;;;;;;;;;;;;;;;5051281;28;19993;-73
2023/09/22 10:01:11;;;;;;;;;;;;;;;;;;5051288;28;19985;-72
2023/09/22 10:03:39;;;;;;;;;;;;;;;;;;5051190;28;19982;-73
2023/09/22 10:06:06;;;;;;;;;;;;;;;;;;5051318;28;20119;-73
2023/09/22 10:08:32;;;;;;;;;;;;;;;;;;5051500;28;20031;-74
2023/09/22 10:10:59;;;;;;;;;;;;;;;;;;5050195;28;20084;-72
2023/09/22 10:13:24;;;;;;;;;;;;;;;;;;5050841;28;20348;-72
2023/09/22 10:15:51;;;;;;;;;;;;;;;;;;5051240;28;20557;-72
2023/09/22 10:18:17;;;;;;;;;;;;;;;;;;5052720;28;20000;-72
2023/09/22 10:20:44;;;;;;;;;;;;;;;;;;5053882;28;20040;-72
2023/09/22 10:23:10;;;;;;;;;;;;;;;;;;5055216;28;20392;-72
2023/09/22 10:25:36;;;;;;;;;;;;;;;;;;5054735;28;20408;-71
2023/09/22 10:28:04;;;;;;;;;;;;;;;;;;5053902;28;19989;-71
2023/09/22 10:30:30;;;;;;;;;;;;;;;;;;5055184;28;20286;-71
2023/09/22 10:32:56;;;;;;;;;;;;;;;;;;5054851;28;20082;-70
2023/09/22 10:35:22;;;;;;;;;;;;;;;;;;5054944;28;20188;-70
2023/09/22 10:37:48;;;;;;;;;;;;;;;;;;5054797;28;20529;-71
2023/09/22 10:40:19;;;;;;;;;;;;;;;;;;5055044;28;19986;-69
2023/09/22 10:42:46;;;;;;;;;;;;;;;;;;5053562;28;19997;-68
2023/09/22 10:45:12;;;;;;;;;;;;;;;;;;5054682;28;20434;-69
2023/09/22 10:47:37;;;;;;;;;;;;;;;;;;5054655;28;20077;-69
2023/09/22 10:50:03;;;;;;;;;;;;;;;;;;5054724;28;20374;-68
2023/09/22 10:52:29;;;;;;;;;;;;;;;;;;5054704;28;20438;-69
2023/09/22 10:54:55;;;;;;;;;;;;;;;;;;5052986;28;20017;-69
2023/09/22 10:57:21;;;;;;;;;;;;;;;;;;5054905;28;19985;-71
2023/09/22 10:59:47;;;;;;;;;;;;;;;;;;5045995;28;20447;-70
2023/09/22 11:02:13;;;;;;;;;;;;;;;;;;5046529;28;20025;-70
2023/09/22 11:04:39;;;;;;;;;;;;;;;;;;5052145;28;20456;-69
2023/09/22 11:07:05;;;;;;;;;;;;;;;;;;5035398;28;19986;-69
2023/09/22 11:09:31;;;;;;;;;;;;;;;;;;5034278;28;19982;-69
2023/09/22 11:11:57;;;;;;;;;;;;;;;;;;5034136;28;19993;-69
2023/09/22 11:14:23;;;;;;;;;;;;;;;;;;5033882;28;19986;-70
2023/09/22 11:16:49;;;;;;;;;;;;;;;;;;5034275;28;20070;-67
2023/09/22 11:19:15;;;;;;;;;;;;;;;;;;5033963;28;20120;-68
2023/09/22 11:21:41;;;;;;;;;;;;;;;;;;5034566;28;20044;-67
2023/09/22 11:24:07;;;;;;;;;;;;;;;;;;5033827;28;19993;-67
2023/09/22 11:26:33;;;;;;;;;;;;;;;;;;5033852;28;19990;-68
2023/09/22 11:28:59;;;;;;;;;;;;;;;;;;5032892;28;20013;-69
2023/09/22 11:31:25;;;;;;;;;;;;;;;;;;5033862;28;19986;-68
2023/09/22 11:33:50;;;;;;;;;;;;;;;;;;5033757;28;20073;-68
2023/09/22 11:36:18;;;;;;;;;;;;;;;;;;5033382;28;20021;-69
2023/09/22 11:38:45;;;;;;;;;;;;;;;;;;5032931;28;20366;-69
2023/09/22 11:41:11;;;;;;;;;;;;;;;;;;5033411;28;20476;-69
2023/09/22 11:43:38;;;;;;;;;;;;;;;;;;5033647;28;20018;-70
2023/09/22 11:46:04;;;;;;;;;;;;;;;;;;5033403;28;20340;-70
2023/09/22 11:48:30;;;;;;;;;;;;;;;;;;5033288;28;20451;-69
2023/09/22 11:50:56;;;;;;;;;;;;;;;;;;5033423;28;19986;-68
2023/09/22 11:53:22;;;;;;;;;;;;;;;;;;5033613;28;19982;-68
2023/09/22 11:55:48;;;;;;;;;;;;;;;;;;5033813;28;20029;-69
2023/09/22 11:58:14;;;;;;;;;;;;;;;;;;5033128;28;20005;-69
2023/09/22 12:00:40;;;;;;;;;;;;;;;;;;5033482;28;20021;-69
2023/09/22 12:03:06;;;;;;;;;;;;;;;;;;5033787;28;19989;-68
2023/09/22 12:05:33;;;;;;;;;;;;;;;;;;5033145;28;19998;-68
2023/09/22 12:07:59;;;;;;;;;;;;;;;;;;5032847;28;20021;-67
2023/09/22 12:10:25;;;;;;;;;;;;;;;;;;5033515;28;20095;-70
2023/09/22 12:12:51;;;;;;;;;;;;;;;;;;5033114;28;20009;-69
2023/09/22 12:15:17;;;;;;;;;;;;;;;;;;5033280;28;20104;-69
2023/09/22 12:17:43;;;;;;;;;;;;;;;;;;5032891;28;20148;-68
2023/09/22 12:20:09;;;;;;;;;;;;;;;;;;5033130;28;20073;-67
2023/09/22 12:22:35;;;;;;;;;;;;;;;;;;5039726;28;20072;-71
2023/09/22 12:25:01;;;;;;;;;;;;;;;;;;5052484;28;19982;-69
2023/09/22 12:27:27;;;;;;;;;;;;;;;;;;5052901;28;19982;-69
2023/09/22 12:29:53;;;;;;;;;;;;;;;;;;5052974;28;19989;-69
2023/09/22 12:32:19;;;;;;;;;;;;;;;;;;5052780;28;19990;-68
2023/09/22 12:34:46;;;;;;;;;;;;;;;;;;5052770;28;20163;-67
2023/09/22 12:37:12;;;;;;;;;;;;;;;;;;5052384;28;19986;-68
2023/09/22 12:39:39;;;;;;;;;;;;;;;;;;5051604;28;20424;-69
2023/09/22 12:42:05;;;;;;;;;;;;;;;;;;5052842;28;19982;-68
2023/09/22 12:44:31;;;;;;;;;;;;;;;;;;5052511;28;20053;-67
2023/09/22 12:46:57;;;;;;;;;;;;;;;;;;5052712;28;19986;-69
2023/09/22 12:49:22;;;;;;;;;;;;;;;;;;5043156;28;19994;-69
2023/09/22 12:51:48;;;;;;;;;;;;;;;;;;5032656;28;20474;-68
2023/09/22 12:54:14;;;;;;;;;;;;;;;;;;5038515;28;20353;-67
2023/09/22 12:56:40;;;;;;;;;;;;;;;;;;5052374;28;20024;-67
2023/09/22 12:59:08;;;;;;;;;;;;;;;;;;5039278;28;19986;-67
2023/09/22 13:01:34;;;;;;;;;;;;;;;;;;5032053;28;20415;-66
2023/09/22 13:04:00;;;;;;;;;;;;;;;;;;5049173;28;19997;-67
2023/09/22 13:06:25;;;;;;;;;;;;;;;;;;5052120;28;19997;-66
2023/09/22 13:08:51;;;;;;;;;;;;;;;;;;5035506;28;19990;-66
2023/09/22 13:11:18;;;;;;;;;;;;;;;;;;5049529;28;20439;-66
2023/09/22 13:13:44;;;;;;;;;;;;;;;;;;5034107;28;19982;-66
2023/09/22 13:16:11;;;;;;;;;;;;;;;;;;5031820;28;20518;-66
2023/09/22 13:18:37;;;;;;;;;;;;;;;;;;5041957;28;19993;-66
2023/09/22 13:21:03;;;;;;;;;;;;;;;;;;5036094;28;20076;-65
2023/09/22 13:23:28;;;;;;;;;;;;;;;;;;5047226;28;19989;-65
2023/09/22 13:25:54;;;;;;;;;;;;;;;;;;5033358;28;19990;-65
2023/09/22 13:28:20;;;;;;;;;;;;;;;;;;5031800;28;19989;-66
2023/09/22 13:30:52;;;;;;;;;;;;;;;;;;5032250;28;20504;-65
2023/09/22 13:33:20;;;;;;;;;;;;;;;;;;5030381;28;20509;-65
2023/09/22 13:35:46;;;;;;;;;;;;;;;;;;5031466;28;20014;-66
2023/09/22 13:38:15;;;;;;;;;;;;;;;;;;5032441;28;19989;-64
2023/09/22 13:40:42;;;;;;;;;;;;;;;;;;5051872;28;20036;-65
2023/09/22 13:43:08;;;;;;;;;;;;;;;;;;5050346;28;20014;-66
2023/09/22 13:45:36;;;;;;;;;;;;;;;;;;5051530;28;20048;-65
2023/09/22 13:48:02;;;;;;;;;;;;;;;;;;5051360;28;19982;-65
2023/09/22 13:50:28;;;;;;;;;;;;;;;;;;5051364;28;20421;-65
2023/09/22 13:52:54;;;;;;;;;;;;;;;;;;5050597;28;19982;-65
2023/09/22 13:55:20;;;;;;;;;;;;;;;;;;5050175;28;20083;-65
2023/09/22 13:57:46;;;;;;;;;;;;;;;;;;5051292;28;20027;-65
2023/09/22 14:00:11;;;;;;;;;;;;;;;;;;5049484;28;19982;-65
2023/09/22 14:02:38;;;;;;;;;;;;;;;;;;5049565;28;19986;-65
2023/09/22 14:05:04;;;;;;;;;;;;;;;;;;5050626;28;20002;-65
2023/09/22 14:07:29;;;;;;;;;;;;;;;;;;5051307;28;19986;-65
2023/09/22 14:09:56;;;;;;;;;;;;;;;;;;5051381;28;20433;-65
2023/09/22 14:12:21;;;;;;;;;;;;;;;;;;5050950;28;20445;-65
2023/09/22 14:14:48;;;;;;;;;;;;;;;;;;5051213;28;20001;-65
2023/09/22 14:17:14;;;;;;;;;;;;;;;;;;5050907;28;19996;-65
2023/09/22 14:19:39;;;;;;;;;;;;;;;;;;5050142;28;19993;-65
2023/09/22 14:22:06;;;;;;;;;;;;;;;;;;5051476;28;20052;-65
2023/09/22 14:24:32;;;;;;;;;;;;;;;;;;5051124;28;20021;-66
2023/09/22 14:26:58;;;;;;;;;;;;;;;;;;5050853;28;20028;-66
2023/09/22 14:29:23;;;;;;;;;;;;;;;;;;5051021;28;19986;-66
2023/09/22 14:31:49;;;;;;;;;;;;;;;;;;5050841;28;19986;-66
2023/09/22 14:34:15;;;;;;;;;;;;;;;;;;5051172;28;20365;-65
2023/09/22 14:36:41;;;;;;;;;;;;;;;;;;5049383;28;20515;-66
2023/09/22 14:39:08;;;;;;;;;;;;;;;;;;5050749;28;19981;-65
2023/09/22 14:41:34;;;;;;;;;;;;;;;;;;5050732;28;19985;-65
2023/09/22 14:44:00;;;;;;;;;;;;;;;;;;5050619;28;20112;-65
2023/09/22 14:46:26;;;;;;;;;;;;;;;;;;5050483;28;19986;-66
2023/09/22 14:48:52;;;;;;;;;;;;;;;;;;5050867;28;20155;-65
2023/09/22 14:51:18;;;;;;;;;;;;;;;;;;5049743;28;20088;-66
2023/09/22 14:53:45;;;;;;;;;;;;;;;;;;5051148;28;19997;-65
2023/09/22 14:56:11;;;;;;;;;;;;;;;;;;5050644;28;20021;-66
2023/09/22 14:58:38;;;;;;;;;;;;;;;;;;5050549;28;20077;-66
2023/09/22 15:01:03;;;;;;;;;;;;;;;;;;5050624;28;20346;-66
2023/09/22 15:03:29;;;;;;;;;;;;;;;;;;5050762;28;20319;-66
2023/09/22 15:05:55;;;;;;;;;;;;;;;;;;5054361;28;20005;-66
2023/09/22 15:08:21;;;;;;;;;;;;;;;;;;5053249;28;20067;-67
2023/09/22 15:10:47;;;;;;;;;;;;;;;;;;5052809;28;20047;-66
2023/09/22 15:13:16;;;;;;;;;;;;;;;;;;5054374;28;20323;-66
2023/09/22 15:15:43;;;;;;;;;;;;;;;;;;5052922;28;20021;-66
2023/09/22 15:18:08;;;;;;;;;;;;;;;;;;5054243;28;20029;-66
2023/09/22 15:20:34;;;;;;;;;;;;;;;;;;5052246;28;19990;-67
2023/09/22 15:23:00;;;;;;;;;;;;;;;;;;5053948;28;20512;-66
2023/09/22 15:25:26;;;;;;;;;;;;;;;;;;5053915;28;19986;-66
2023/09/22 15:27:52;;;;;;;;;;;;;;;;;;5053825;28;20044;-67
2023/09/22 15:30:18;;;;;;;;;;;;;;;;;;5053735;28;20525;-67
2023/09/22 15:32:44;;;;;;;;;;;;;;;;;;5054095;28;19989;-67
2023/09/22 15:35:10;;;;;;;;;;;;;;;;;;5053821;28;20161;-67
2023/09/22 15:37:36;;;;;;;;;;;;;;;;;;5052560;28;19993;-67
2023/09/22 15:40:02;;;;;;;;;;;;;;;;;;5053947;28;20476;-67
2023/09/22 15:42:28;;;;;;;;;;;;;;;;;;5053683;28;20124;-66
2023/09/22 15:44:54;;;;;;;;;;;;;;;;;;5053479;28;20120;-67
2023/09/22 15:47:20;;;;;;;;;;;;;;;;;;5053605;28;19982;-67
2023/09/22 15:49:46;;;;;;;;;;;;;;;;;;5053464;28;19985;-66
2023/09/22 15:52:12;;;;;;;;;;;;;;;;;;5053412;28;20055;-66
2023/09/22 15:54:38;;;;;;;;;;;;;;;;;;5052174;28;19996;-67
2023/09/22 15:57:04;;;;;;;;;;;;;;;;;;5053528;28;19986;-67
2023/09/22 15:59:30;;;;;;;;;;;;;;;;;;5053413;28;19990;-66
2023/09/22 16:01:56;;;;;;;;;;;;;;;;;;5053534;28;20035;-65
2023/09/22 16:04:22;;;;;;;;;;;;;;;;;;5053359;28;19989;-66
2023/09/22 16:06:48;;;;;;;;;;;;;;;;;;5053418;28;19998;-66
2023/09/22 16:09:14;;;;;;;;;;;;;;;;;;5053218;28;19981;-67
2023/09/22 16:11:40;;;;;;;;;;;;;;;;;;5052514;28;19986;-65
2023/09/22 16:14:06;;;;;;;;;;;;;;;;;;5053301;28;19981;-67
2023/09/22 16:16:34;;;;;;;;;;;;;;;;;;5052064;28;20006;-67
2023/09/22 16:19:00;;;;;;;;;;;;;;;;;;5052759;28;20473;-66
2023/09/22 16:21:26;;;;;;;;;;;;;;;;;;5037583;28;20030;-67
2023/09/22 16:23:52;;;;;;;;;;;;;;;;;;5050996;28;20044;-65
2023/09/22 16:26:18;;;;;;;;;;;;;;;;;;5047880;28;20427;-66
2023/09/22 16:28:44;;;;;;;;;;;;;;;;;;5033427;28;20076;-66
2023/09/22 16:31:10;;;;;;;;;;;;;;;;;;5035414;28;20346;-65
2023/09/22 16:33:36;;;;;;;;;;;;;;;;;;5040341;28;20423;-65
2023/09/22 16:36:08;;;;;;;;;;;;;;;;;;5032556;28;20374;-66
2023/09/22 16:38:34;;;;;;;;;;;;;;;;;;5045035;28;19989;-66